createdAt,value
2023-05-14T00:00:22.592Z,81.30
2023-05-14T00:03:25.186Z,81.50
2023-05-14T00:06:27.278Z,81.70
2023-05-14T00:09:29.265Z,81.60
2023-05-14T00:12:31.363Z,81.80
2023-05-14T00:15:34.782Z,82.00
2023-05-14T00:18:36.802Z,81.90
2023-05-14T00:21:41.435Z,82.00
2023-05-14T00:24:43.409Z,82.00
2023-05-14T00:27:45.398Z,82.20
2023-05-14T00:30:47.465Z,83.20
2023-05-14T00:33:55.601Z,83.50
2023-05-14T00:36:57.586Z,83.40
2023-05-14T00:39:59.526Z,83.60
2023-05-14T00:43:02.103Z,83.60
2023-05-14T00:46:04.253Z,83.40
2023-05-14T00:49:06.276Z,83.50
2023-05-14T00:52:08.301Z,83.40
2023-05-14T00:55:11.532Z,83.40
2023-05-14T00:58:14.581Z,83.60
2023-05-14T01:01:16.704Z,83.40
2023-05-14T01:04:18.810Z,84.10
2023-05-14T01:08:07.271Z,83.90
2023-05-14T01:11:16.204Z,83.70
2023-05-14T01:14:34.064Z,83.40
2023-05-14T01:17:50.673Z,83.30
2023-05-14T01:20:55.225Z,83.00
2023-05-14T01:23:57.776Z,82.90
2023-05-14T01:27:15.017Z,82.70
2023-05-14T01:30:23.043Z,82.40
2023-05-14T01:33:27.824Z,82.40
2023-05-14T01:36:30.426Z,81.50
2023-05-14T01:39:33.496Z,80.70
2023-05-14T01:42:36.201Z,80.30
2023-05-14T01:45:42.363Z,80.40
2023-05-14T01:48:44.279Z,80.30
2023-05-14T01:51:46.297Z,79.20
2023-05-14T01:54:48.757Z,78.80
2023-05-14T01:57:54.305Z,78.70
2023-05-14T02:00:56.296Z,78.10
2023-05-14T02:03:58.345Z,77.20
2023-05-14T02:07:00.846Z,77.10
2023-05-14T02:10:02.878Z,78.20
2023-05-14T02:13:05.000Z,78.60
2023-05-14T02:16:08.378Z,78.80
2023-05-14T02:19:10.445Z,79.30
2023-05-14T02:22:13.046Z,78.50
2023-05-14T02:25:15.057Z,78.90
2023-05-14T02:28:17.073Z,78.80
2023-05-14T02:31:19.113Z,79.20
2023-05-14T02:34:21.142Z,78.70
2023-05-14T02:37:23.192Z,78.30
2023-05-14T02:40:25.537Z,78.40
2023-05-14T02:43:27.909Z,78.80
2023-05-14T02:46:32.358Z,78.70
2023-05-14T02:49:51.358Z,78.60
2023-05-14T02:52:56.447Z,78.40
2023-05-14T02:55:58.415Z,79.40
2023-05-14T02:59:01.044Z,78.40
2023-05-14T03:02:03.732Z,78.30
2023-05-14T03:05:06.270Z,79.30
2023-05-14T03:08:08.245Z,79.50
2023-05-14T03:11:10.302Z,79.00
2023-05-14T03:14:12.449Z,78.10
2023-05-14T03:17:14.438Z,79.00
2023-05-14T03:20:16.537Z,79.00
2023-05-14T03:23:18.543Z,79.20
2023-05-14T03:26:20.554Z,79.60
2023-05-14T03:29:22.530Z,79.90
2023-05-14T03:32:24.647Z,80.10
2023-05-14T03:38:41.018Z,80.50
2023-05-14T03:41:43.115Z,80.80
2023-05-14T03:44:45.400Z,80.80
2023-05-14T03:47:47.543Z,81.10
2023-05-14T03:50:50.303Z,80.10
2023-05-14T03:53:52.495Z,80.60
2023-05-14T03:56:54.672Z,80.00
2023-05-14T03:59:56.752Z,79.90
2023-05-14T04:02:59.052Z,79.80
2023-05-14T04:06:01.583Z,80.60
2023-05-14T04:09:03.999Z,80.90
2023-05-14T04:12:06.735Z,80.80
2023-05-14T04:15:09.924Z,80.10
2023-05-14T04:18:12.096Z,80.40
2023-05-14T04:21:14.222Z,80.60
2023-05-14T04:24:17.134Z,80.30
2023-05-14T04:27:22.489Z,80.20
2023-05-14T04:30:24.950Z,80.00
2023-05-14T04:33:27.442Z,80.30
2023-05-14T04:36:29.427Z,80.70
2023-05-14T04:39:31.678Z,80.90
2023-05-14T04:42:33.930Z,80.70
2023-05-14T04:45:36.242Z,80.60
2023-05-14T04:48:38.472Z,80.40
2023-05-14T04:51:40.720Z,80.40
2023-05-14T04:54:45.026Z,80.30
2023-05-14T04:57:47.262Z,79.70
2023-05-14T05:00:49.480Z,79.40
2023-05-14T05:03:51.935Z,78.70
2023-05-14T05:06:54.147Z,79.20
2023-05-14T05:09:56.397Z,78.50
2023-05-14T05:12:58.494Z,78.30
2023-05-14T05:16:00.675Z,78.10
2023-05-14T05:19:02.829Z,77.20
2023-05-14T05:22:05.304Z,76.80
2023-05-14T05:25:07.524Z,77.00
2023-05-14T05:28:09.691Z,76.40
2023-05-14T05:31:11.925Z,75.90
2023-05-14T05:34:14.143Z,75.70
2023-05-14T05:37:16.229Z,74.90
2023-05-14T05:40:18.547Z,74.50
2023-05-14T05:43:21.009Z,75.40
2023-05-14T05:46:23.541Z,74.50
2023-05-14T05:49:25.649Z,74.20
2023-05-14T05:52:27.932Z,74.60
2023-05-14T05:55:29.998Z,73.00
2023-05-14T05:58:32.132Z,71.90
2023-05-14T06:01:34.238Z,69.20
2023-05-14T06:04:36.394Z,68.70
2023-05-14T06:07:40.743Z,65.70
2023-05-14T06:10:42.831Z,64.80
2023-05-14T06:13:44.856Z,63.50
2023-05-14T06:16:46.966Z,62.30
2023-05-14T06:19:49.057Z,61.40
2023-05-14T06:22:51.332Z,59.70
2023-05-14T06:25:53.380Z,59.60
2023-05-14T06:28:55.491Z,61.00
2023-05-14T06:32:01.604Z,58.80
2023-05-14T06:35:03.943Z,57.80
2023-05-14T06:38:06.272Z,56.50
2023-05-14T06:41:08.403Z,55.90
2023-05-14T06:44:10.804Z,54.40
2023-05-14T06:47:12.940Z,55.70
2023-05-14T06:50:15.077Z,55.10
2023-05-14T06:53:17.253Z,54.00
2023-05-14T06:56:19.439Z,53.70
2023-05-14T06:59:21.627Z,53.30
2023-05-14T07:02:23.838Z,52.30
2023-05-14T07:05:26.439Z,51.70
2023-05-14T07:08:28.856Z,52.40
2023-05-14T07:11:30.997Z,52.10
2023-05-14T07:14:33.300Z,51.20
2023-05-14T07:17:35.448Z,52.20
2023-05-14T07:20:37.583Z,52.10
2023-05-14T07:23:39.669Z,51.30
2023-05-14T07:26:41.928Z,52.40
2023-05-14T07:29:44.396Z,51.70
2023-05-14T07:32:46.543Z,54.00
2023-05-14T07:35:48.735Z,50.80
2023-05-14T07:38:50.886Z,52.30
2023-05-14T07:41:53.099Z,55.30
2023-05-14T07:44:55.322Z,52.80
2023-05-14T07:47:57.897Z,52.50
2023-05-14T07:51:00.605Z,52.40
2023-05-14T07:54:02.813Z,52.60
2023-05-14T07:57:05.223Z,49.70
2023-05-14T08:00:07.983Z,49.30
2023-05-14T08:03:14.562Z,48.10
2023-05-14T08:06:17.004Z,48.70
2023-05-14T08:09:19.225Z,47.70
2023-05-14T08:12:21.546Z,48.30
2023-05-14T08:15:25.186Z,50.40
2023-05-14T08:18:29.449Z,49.40
2023-05-14T08:21:31.570Z,49.50
2023-05-14T08:24:33.883Z,45.50
2023-05-14T08:27:35.978Z,44.80
2023-05-14T08:30:38.149Z,46.70
2023-05-14T08:33:40.428Z,45.50
2023-05-14T08:36:42.602Z,46.00
2023-05-14T08:39:44.742Z,51.60
2023-05-14T08:42:48.561Z,51.70
2023-05-14T08:45:54.397Z,51.40
2023-05-14T08:49:09.230Z,47.20
2023-05-14T08:52:12.404Z,44.60
2023-05-14T08:55:15.081Z,46.00
2023-05-14T08:58:17.460Z,51.60
2023-05-14T09:01:20.099Z,51.00
2023-05-14T09:04:24.604Z,51.70
2023-05-14T09:07:27.541Z,51.40
2023-05-14T09:10:29.645Z,51.20
2023-05-14T09:13:38.690Z,50.30
2023-05-14T09:16:41.311Z,48.00
2023-05-14T09:19:44.531Z,46.30
2023-05-14T09:22:46.690Z,45.20
2023-05-14T09:25:48.809Z,46.30
2023-05-14T09:28:54.386Z,47.30
2023-05-14T09:31:58.536Z,45.30
2023-05-14T09:35:09.019Z,45.10
2023-05-14T09:38:11.796Z,47.70
2023-05-14T09:41:14.004Z,48.50
2023-05-14T09:44:18.441Z,48.20
2023-05-14T09:47:20.944Z,51.20
2023-05-14T09:50:25.959Z,52.60
2023-05-14T09:53:30.329Z,54.20
2023-05-14T09:56:36.188Z,52.60
2023-05-14T09:59:38.480Z,51.80
2023-05-14T10:02:42.997Z,53.70
2023-05-14T10:05:45.392Z,55.00
2023-05-14T10:08:49.588Z,53.10
2023-05-14T10:11:57.603Z,54.10
2023-05-14T10:15:07.042Z,53.30
2023-05-14T10:18:16.435Z,54.60
2023-05-14T10:21:21.356Z,54.30
2023-05-14T10:24:24.969Z,55.10
2023-05-14T10:27:27.675Z,54.70
2023-05-14T10:30:29.790Z,56.30
2023-05-14T10:33:50.012Z,55.40
2023-05-14T10:36:52.254Z,54.60
2023-05-14T10:39:58.216Z,54.40
2023-05-14T10:43:00.919Z,55.10
2023-05-14T10:46:04.181Z,54.10
2023-05-14T10:49:06.498Z,54.80
2023-05-14T11:04:41.482Z,53.70
2023-05-14T11:07:44.259Z,54.00
2023-05-14T11:10:46.391Z,52.00
2023-05-14T11:13:48.978Z,50.50
2023-05-14T11:16:51.319Z,53.20
2023-05-14T11:19:54.006Z,51.20
2023-05-14T11:22:56.266Z,54.60
2023-05-14T11:25:58.760Z,52.30
2023-05-14T11:29:07.644Z,50.70
2023-05-14T11:32:09.795Z,50.90
2023-05-14T11:35:12.150Z,52.60
2023-05-14T11:38:20.588Z,50.90
2023-05-14T11:41:23.781Z,51.30
2023-05-14T11:44:25.966Z,53.00
2023-05-14T11:47:30.188Z,51.90
2023-05-14T11:50:36.325Z,54.70
2023-05-14T11:53:38.439Z,51.20
2023-05-14T11:56:40.516Z,51.70
2023-05-14T11:59:42.833Z,52.60
2023-05-14T12:02:45.087Z,54.00
2023-05-14T12:06:00.788Z,52.30
2023-05-14T12:09:05.688Z,52.20
2023-05-14T12:12:11.981Z,50.50
2023-05-14T12:15:15.351Z,52.50
2023-05-14T12:18:24.659Z,52.60
2023-05-14T12:21:28.049Z,52.00
2023-05-14T12:24:30.038Z,51.00
2023-05-14T12:27:32.018Z,52.10
2023-05-14T12:30:37.683Z,52.30
2023-05-14T12:33:39.684Z,51.80
2023-05-14T12:36:42.387Z,51.70
2023-05-14T12:39:44.863Z,50.40
2023-05-14T12:42:46.845Z,50.60
2023-05-14T12:45:51.375Z,48.30
2023-05-14T12:48:54.496Z,49.50
2023-05-14T12:52:07.636Z,50.10
2023-05-14T12:55:18.493Z,49.30
2023-05-14T12:58:20.412Z,49.20
2023-05-14T13:01:23.169Z,48.70
2023-05-14T13:04:26.760Z,47.50
2023-05-14T13:07:29.206Z,46.90
2023-05-14T13:10:31.711Z,50.60
2023-05-14T13:13:34.006Z,52.40
2023-05-14T13:16:36.103Z,51.20
2023-05-14T13:19:38.137Z,51.40
2023-05-14T13:22:40.497Z,51.00
2023-05-14T13:25:42.496Z,51.80
2023-05-14T13:28:44.513Z,51.00
2023-05-14T13:31:46.574Z,49.20
2023-05-14T13:34:48.639Z,48.90
2023-05-14T13:37:50.612Z,48.70
2023-05-14T13:40:52.687Z,49.20
2023-05-14T13:43:54.655Z,49.90
2023-05-14T13:46:56.641Z,48.30
2023-05-14T13:49:58.854Z,50.20
2023-05-14T13:53:00.889Z,48.50
2023-05-14T13:56:02.915Z,48.60
2023-05-14T13:59:06.278Z,46.50
2023-05-14T14:02:08.920Z,47.80
2023-05-14T14:05:10.997Z,47.40
2023-05-14T14:08:23.309Z,46.80
2023-05-14T14:11:26.636Z,46.60
2023-05-14T14:14:28.866Z,46.80
2023-05-14T14:17:31.687Z,47.30
2023-05-14T14:20:33.799Z,47.10
2023-05-14T14:23:35.773Z,45.70
2023-05-14T14:26:37.871Z,47.80
2023-05-14T14:29:40.083Z,48.70
2023-05-14T14:32:46.520Z,49.60
2023-05-14T14:35:48.596Z,48.40
2023-05-14T14:38:50.591Z,50.70
2023-05-14T14:41:52.652Z,48.30
2023-05-14T14:44:54.609Z,49.80
2023-05-14T14:48:31.959Z,51.10
2023-05-14T14:51:34.398Z,52.80
2023-05-14T14:54:36.573Z,51.50
2023-05-14T14:57:38.677Z,52.80
2023-05-14T15:00:40.886Z,53.30
2023-05-14T15:03:42.980Z,50.50
2023-05-14T15:06:45.078Z,51.80
2023-05-14T15:09:47.050Z,49.20
2023-05-14T15:12:49.173Z,50.70
2023-05-14T15:15:51.734Z,49.90
2023-05-14T15:18:53.806Z,48.60
2023-05-14T15:21:55.872Z,50.10
2023-05-14T15:24:57.992Z,47.20
2023-05-14T15:28:00.244Z,47.10
2023-05-14T15:31:05.384Z,46.90
2023-05-14T15:34:07.535Z,48.40
2023-05-14T15:37:10.362Z,48.20
2023-05-14T15:40:13.160Z,47.30
2023-05-14T15:43:15.263Z,49.20
2023-05-14T15:46:17.341Z,49.10
2023-05-14T15:49:19.389Z,47.80
2023-05-14T15:52:22.075Z,49.10
2023-05-14T15:55:24.152Z,48.60
2023-05-14T15:58:27.678Z,50.20
2023-05-14T16:01:30.319Z,50.10
2023-05-14T16:04:32.285Z,48.90
2023-05-14T16:07:34.560Z,50.20
2023-05-14T16:10:36.543Z,49.10
2023-05-14T16:13:38.962Z,49.20
2023-05-14T16:16:41.031Z,49.50
2023-05-14T16:19:43.382Z,50.30
2023-05-14T16:22:45.532Z,49.30
2023-05-14T16:25:47.921Z,49.80
2023-05-14T16:28:49.878Z,50.50
2023-05-14T16:31:51.874Z,51.00
2023-05-14T16:34:54.653Z,49.20
2023-05-14T16:37:56.749Z,48.90
2023-05-14T16:40:58.663Z,49.00
2023-05-14T16:44:00.686Z,49.30
2023-05-14T16:47:02.638Z,49.60
2023-05-14T16:50:04.998Z,51.00
2023-05-14T16:53:07.029Z,50.30
2023-05-14T16:56:09.102Z,49.70
2023-05-14T16:59:11.220Z,50.60
2023-05-14T17:02:13.968Z,50.30
2023-05-14T17:05:16.771Z,50.80
2023-05-14T17:08:19.129Z,50.70
2023-05-14T17:11:21.621Z,51.30
2023-05-14T17:14:23.843Z,51.20
2023-05-14T17:17:26.094Z,51.30
2023-05-14T17:20:28.886Z,51.70
2023-05-14T17:23:31.590Z,51.80
2023-05-14T17:26:33.885Z,52.20
2023-05-14T17:29:36.968Z,52.30
2023-05-14T17:32:39.345Z,51.50
2023-05-14T17:35:42.156Z,51.70
2023-05-14T17:38:44.419Z,52.40
2023-05-14T17:41:46.946Z,52.70
2023-05-14T17:44:49.187Z,53.50
2023-05-14T17:47:52.059Z,52.10
2023-05-14T17:50:54.286Z,52.30
2023-05-14T17:53:56.355Z,52.00
2023-05-14T17:56:58.488Z,54.50
2023-05-14T18:00:00.556Z,52.90
2023-05-14T18:03:02.853Z,52.70
2023-05-14T18:06:05.162Z,52.70
2023-05-14T18:09:07.080Z,54.80
2023-05-14T18:12:09.053Z,53.80
2023-05-14T18:15:11.178Z,53.70
2023-05-14T18:18:13.428Z,53.40
2023-05-14T18:21:15.403Z,55.80
2023-05-14T18:24:17.431Z,54.70
2023-05-14T18:27:19.350Z,57.30
2023-05-14T18:30:21.418Z,53.90
2023-05-14T18:33:23.334Z,57.50
2023-05-14T18:36:25.766Z,56.20
2023-05-14T18:39:27.967Z,58.70
2023-05-14T18:42:30.043Z,57.50
2023-05-14T18:45:32.059Z,58.50
2023-05-14T18:48:34.001Z,58.30
2023-05-14T18:51:35.945Z,59.90
2023-05-14T18:54:37.906Z,61.00
2023-05-14T18:57:39.896Z,61.10
2023-05-14T19:00:41.829Z,60.90
2023-05-14T19:03:43.897Z,60.80
2023-05-14T19:06:46.273Z,60.80
2023-05-14T19:09:48.442Z,61.00
2023-05-14T19:12:50.461Z,62.70
2023-05-14T19:15:52.464Z,62.30
2023-05-14T19:18:54.715Z,64.50
2023-05-14T19:21:56.867Z,64.20
2023-05-14T19:24:58.798Z,65.20
2023-05-14T19:28:02.377Z,66.00
2023-05-14T19:31:05.197Z,64.80
2023-05-14T19:34:07.241Z,64.00
2023-05-14T19:37:09.318Z,66.10
2023-05-14T19:40:11.528Z,67.40
2023-05-14T19:43:13.619Z,66.70
2023-05-14T19:46:15.732Z,66.20
2023-05-14T19:49:17.655Z,67.00
2023-05-14T19:52:20.163Z,68.40
2023-05-14T19:55:22.403Z,68.00
2023-05-14T19:58:25.455Z,69.00
2023-05-14T20:01:27.533Z,67.70
2023-05-14T20:04:29.644Z,70.30
2023-05-14T20:07:31.521Z,69.30
2023-05-14T20:10:33.588Z,70.20
2023-05-14T20:13:35.485Z,70.90
2023-05-14T20:16:37.663Z,69.90
2023-05-14T20:19:39.607Z,70.20
2023-05-14T20:22:41.609Z,71.40
2023-05-14T20:25:43.567Z,71.20
2023-05-14T20:28:45.524Z,71.70
2023-05-14T20:31:47.543Z,71.20
2023-05-14T20:34:49.647Z,71.60
2023-05-14T20:37:51.670Z,70.60
2023-05-14T20:40:53.669Z,71.30
2023-05-14T20:43:55.630Z,71.30
2023-05-14T20:46:57.671Z,71.20
2023-05-14T20:50:00.411Z,73.00
2023-05-14T20:53:03.007Z,71.90
2023-05-14T20:56:06.252Z,71.90
2023-05-14T20:59:08.218Z,70.90
2023-05-14T21:02:10.422Z,71.70
2023-05-14T21:05:12.647Z,72.60
2023-05-14T21:08:14.652Z,72.90
2023-05-14T21:11:16.633Z,74.30
2023-05-14T21:14:19.040Z,73.80
2023-05-14T21:17:21.171Z,73.90
2023-05-14T21:20:23.214Z,73.90
2023-05-14T21:23:25.258Z,74.20
2023-05-14T21:26:28.341Z,73.10
2023-05-14T21:29:30.381Z,73.60
2023-05-14T21:32:32.444Z,74.50
2023-05-14T21:35:34.594Z,75.20
2023-05-14T21:38:36.992Z,74.90
2023-05-14T21:41:39.014Z,75.60
2023-05-14T21:44:41.018Z,72.90
2023-05-14T21:47:43.210Z,75.20
2023-05-14T21:50:45.260Z,75.60
2023-05-14T21:53:47.442Z,75.10
2023-05-14T21:56:49.422Z,74.90
2023-05-14T21:59:51.410Z,75.50
2023-05-14T22:02:53.575Z,75.60
2023-05-14T22:05:55.516Z,75.30
2023-05-14T22:08:57.927Z,75.20
2023-05-14T22:12:00.120Z,75.50
2023-05-14T22:15:02.178Z,75.80
2023-05-14T22:18:04.362Z,77.10
2023-05-14T22:21:06.561Z,77.20
2023-05-14T22:24:08.621Z,76.90
2023-05-14T22:27:10.543Z,76.60
2023-05-14T22:30:12.615Z,77.50
2023-05-14T22:33:14.740Z,77.90
2023-05-14T22:36:16.780Z,78.00
2023-05-14T22:39:18.741Z,78.30
2023-05-14T22:42:20.875Z,78.30
2023-05-14T22:45:23.314Z,78.20
2023-05-14T22:48:25.668Z,77.90
2023-05-14T22:51:27.749Z,78.30
2023-05-14T22:54:29.767Z,78.10
2023-05-14T22:57:32.438Z,78.60
2023-05-14T23:00:34.647Z,78.70
2023-05-14T23:03:36.693Z,78.80
2023-05-14T23:06:38.718Z,79.00
2023-05-14T23:09:40.829Z,79.70
2023-05-14T23:12:42.787Z,79.50
2023-05-14T23:15:44.984Z,79.50
2023-05-14T23:18:47.263Z,79.40
2023-05-14T23:21:49.282Z,79.50
2023-05-14T23:24:51.247Z,79.30
2023-05-14T23:27:53.364Z,79.00
2023-05-14T23:30:55.323Z,80.20
2023-05-14T23:33:57.366Z,81.20
2023-05-14T23:36:59.461Z,82.20
2023-05-14T23:40:01.480Z,81.10
2023-05-14T23:43:03.450Z,81.00
2023-05-14T23:46:05.633Z,80.60
2023-05-14T23:49:07.820Z,80.80
2023-05-14T23:52:09.871Z,81.80
2023-05-14T23:55:11.982Z,82.20
2023-05-14T23:58:14.301Z,81.60
